createdAt,value
2019-03-22T00:02:57.258Z,7.58
2019-03-22T00:05:58.505Z,7.60
2019-03-22T00:08:59.752Z,7.53
2019-03-22T00:12:00.772Z,7.00
2019-03-22T00:15:01.737Z,6.90
2019-03-22T00:18:02.989Z,7.50
2019-03-22T00:21:03.981Z,7.22
2019-03-22T00:24:04.970Z,7.30
2019-03-22T00:27:15.857Z,7.45
2019-03-22T00:30:07.465Z,7.65
2019-03-22T00:33:08.714Z,7.53
2019-03-22T00:36:09.961Z,6.67
2019-03-22T00:39:10.957Z,7.03
2019-03-22T00:42:12.457Z,6.50
2019-03-22T00:45:14.472Z,9.48
2019-03-22T00:48:16.241Z,6.83
2019-03-22T00:51:17.737Z,6.42
2019-03-22T00:54:18.728Z,7.05
2019-03-22T00:57:28.546Z,6.55
2019-03-22T01:00:22.252Z,6.50
2019-03-22T01:03:24.264Z,7.97
2019-03-22T01:06:25.513Z,6.72
2019-03-22T01:09:27.787Z,5.25
2019-03-22T01:12:29.033Z,6.22
2019-03-22T01:15:30.280Z,5.65
2019-03-22T01:18:31.783Z,7.83
2019-03-22T01:21:40.460Z,6.00
2019-03-22T01:24:41.709Z,6.95
2019-03-22T01:27:45.768Z,5.53
2019-03-22T01:30:47.019Z,5.70
2019-03-22T01:33:48.263Z,5.25
2019-03-22T01:36:49.260Z,5.87
2019-03-22T01:39:53.838Z,11.30
2019-03-22T01:42:54.826Z,13.38
2019-03-22T01:45:56.074Z,13.38
2019-03-22T01:48:57.320Z,5.83
2019-03-22T01:52:01.647Z,5.47
2019-03-22T01:55:02.629Z,5.17
2019-03-22T01:57:54.001Z,5.17
2019-03-22T02:00:53.666Z,11.20
2019-03-22T02:03:54.601Z,6.30
2019-03-22T02:06:51.948Z,12.73
2019-03-22T02:09:53.002Z,13.98
2019-03-22T02:13:01.676Z,12.78
2019-03-22T02:16:05.997Z,8.25
2019-03-22T02:19:03.406Z,12.82
2019-03-22T02:22:05.160Z,10.75
2019-03-22T02:25:09.483Z,14.53
2019-03-22T02:28:10.474Z,13.65
2019-03-22T02:31:11.211Z,15.03
2019-03-22T02:34:12.207Z,14.43
2019-03-22T02:37:13.453Z,12.10
2019-03-22T02:40:15.490Z,15.35
2019-03-22T02:43:16.721Z,15.78
2019-03-22T02:46:18.249Z,12.75
2019-03-22T02:49:19.214Z,14.63
2019-03-22T02:52:21.486Z,15.08
2019-03-22T02:55:22.479Z,16.45
2019-03-22T02:58:19.677Z,14.45
2019-03-22T03:01:09.620Z,14.78
2019-03-22T03:04:13.025Z,14.33
2019-03-22T03:07:12.369Z,15.00
2019-03-22T03:10:13.612Z,15.72
2019-03-22T03:13:15.113Z,8.23
2019-03-22T03:16:16.112Z,15.58
2019-03-22T03:19:18.122Z,11.10
2019-03-22T03:22:20.403Z,12.70
2019-03-22T03:25:21.386Z,12.47
2019-03-22T03:28:17.781Z,4.30
2019-03-22T03:31:18.759Z,4.10
2019-03-22T03:34:27.442Z,4.47
2019-03-22T03:37:28.442Z,15.48
2019-03-22T03:40:29.417Z,5.75
2019-03-22T03:43:30.409Z,6.55
2019-03-22T03:46:31.408Z,6.20
2019-03-22T03:49:32.393Z,4.78
2019-03-22T03:52:39.407Z,5.37
2019-03-22T03:55:37.202Z,6.30
2019-03-22T03:58:51.747Z,9.33
2019-03-22T04:01:39.176Z,8.08
2019-03-22T04:04:40.173Z,14.80
2019-03-22T04:07:41.166Z,15.80
2019-03-22T04:10:42.409Z,14.93
2019-03-22T04:13:50.835Z,14.83
2019-03-22T04:16:52.338Z,15.90
2019-03-22T04:19:53.607Z,13.75
2019-03-22T04:22:55.603Z,14.43
2019-03-22T04:26:04.013Z,16.87
2019-03-22T04:29:07.921Z,16.07
2019-03-22T04:32:05.993Z,10.15
2019-03-22T04:35:03.187Z,7.70
2019-03-22T04:38:04.651Z,13.70
2019-03-22T04:41:05.641Z,7.12
2019-03-22T04:44:06.632Z,9.05
2019-03-22T04:47:08.141Z,15.00
2019-03-22T04:50:09.128Z,8.23
2019-03-22T04:53:10.120Z,7.28
2019-03-22T04:56:11.111Z,6.35
2019-03-22T04:59:18.840Z,10.23
2019-03-22T05:02:14.377Z,14.35
2019-03-22T05:05:15.115Z,9.23
2019-03-22T05:08:16.113Z,9.88
2019-03-22T05:11:13.797Z,9.53
2019-03-22T05:14:17.834Z,12.47
2019-03-22T05:17:19.339Z,6.37
2019-03-22T05:20:22.376Z,7.90
2019-03-22T05:23:30.801Z,6.67
2019-03-22T05:26:32.808Z,7.17
2019-03-22T05:29:31.127Z,7.20
2019-03-22T05:32:38.121Z,8.80
2019-03-22T05:35:39.117Z,13.48
2019-03-22T05:38:40.367Z,8.73
2019-03-22T05:41:41.352Z,14.18
2019-03-22T05:44:42.344Z,15.05
2019-03-22T05:47:43.593Z,14.47
2019-03-22T05:50:41.908Z,7.10
2019-03-22T05:53:42.761Z,8.18
2019-03-22T05:56:44.526Z,11.85
2019-03-22T05:59:45.523Z,12.23
2019-03-22T06:02:47.015Z,6.20
2019-03-22T06:05:48.007Z,9.83
2019-03-22T06:08:50.283Z,15.68
2019-03-22T06:11:48.459Z,12.33
2019-03-22T06:14:50.223Z,9.73
2019-03-22T06:17:51.871Z,15.70
2019-03-22T06:20:52.969Z,16.90
2019-03-22T06:23:53.966Z,12.50
2019-03-22T06:26:55.209Z,16.17
2019-03-22T06:29:56.970Z,14.20
2019-03-22T06:32:57.968Z,15.43
2019-03-22T06:35:47.691Z,15.15
2019-03-22T06:38:48.939Z,17.85
2019-03-22T06:41:49.932Z,19.45
2019-03-22T06:44:50.924Z,12.33
2019-03-22T06:47:52.170Z,7.87
2019-03-22T06:50:53.421Z,6.87
2019-03-22T06:53:54.424Z,16.37
2019-03-22T06:56:47.720Z,7.62
2019-03-22T06:59:52.042Z,6.80
2019-03-22T07:02:53.033Z,9.75
2019-03-22T07:05:54.030Z,18.80
2019-03-22T07:08:47.338Z,7.50
2019-03-22T07:11:48.587Z,7.05
2019-03-22T07:14:49.833Z,7.42
2019-03-22T07:17:51.087Z,7.37
2019-03-22T07:20:52.077Z,11.93
2019-03-22T07:23:53.322Z,18.80
2019-03-22T07:26:54.373Z,9.43
2019-03-22T07:29:58.890Z,8.55
2019-03-22T07:33:02.442Z,11.03
2019-03-22T07:35:59.593Z,19.32
2019-03-22T07:39:10.054Z,9.80
2019-03-22T07:42:11.049Z,8.35
2019-03-22T07:45:12.297Z,8.15
2019-03-22T07:48:13.806Z,15.85
2019-03-22T07:51:16.081Z,8.80
2019-03-22T07:54:17.585Z,8.68
2019-03-22T07:57:20.109Z,15.08
2019-03-22T08:00:30.250Z,16.00
2019-03-22T08:03:22.351Z,10.30
2019-03-22T08:06:23.594Z,8.73
2019-03-22T08:09:24.841Z,9.88
2019-03-22T08:12:26.100Z,13.50
2019-03-22T08:15:19.658Z,17.10
2019-03-22T08:18:20.651Z,19.23
2019-03-22T08:21:35.466Z,18.32
2019-03-22T08:24:36.985Z,17.40
2019-03-22T08:27:34.304Z,11.33
2019-03-22T08:30:43.103Z,8.73
2019-03-22T08:33:37.387Z,10.30
2019-03-22T08:36:38.632Z,10.20
2019-03-22T08:39:40.907Z,10.40
2019-03-22T08:42:42.410Z,10.50
2019-03-22T08:45:43.404Z,11.30
2019-03-22T08:48:44.678Z,11.38
2019-03-22T08:51:49.699Z,11.63
2019-03-22T08:54:49.452Z,11.73
2019-03-22T08:57:50.696Z,11.97
2019-03-22T09:00:57.550Z,11.48
2019-03-22T09:03:49.610Z,14.35
2019-03-22T09:06:50.918Z,14.68
2019-03-22T09:09:51.888Z,13.65
2019-03-22T09:12:52.862Z,12.98
2019-03-22T09:16:04.604Z,12.80
2019-03-22T09:19:05.576Z,12.13
2019-03-22T09:22:06.573Z,11.43
2019-03-22T09:25:09.098Z,11.50
2019-03-22T09:28:10.581Z,11.95
2019-03-22T09:31:12.040Z,13.20
2019-03-22T09:34:12.842Z,12.07
2019-03-22T09:37:10.095Z,13.72
2019-03-22T09:40:11.281Z,13.58
2019-03-22T09:43:12.793Z,15.98
2019-03-22T09:46:06.604Z,13.35
2019-03-22T09:49:07.562Z,15.20
2019-03-22T09:52:16.291Z,17.32
2019-03-22T09:55:17.585Z,17.07
2019-03-22T09:58:18.475Z,17.30
2019-03-22T10:01:23.886Z,19.55
2019-03-22T10:04:20.970Z,17.65
2019-03-22T10:07:22.241Z,17.55
2019-03-22T10:10:38.899Z,17.65
2019-03-22T10:13:40.086Z,17.48
2019-03-22T10:16:41.108Z,16.77
2019-03-22T10:19:42.363Z,14.90
2019-03-22T10:22:46.890Z,15.88
2019-03-22T10:25:48.200Z,15.13
2019-03-22T10:28:49.405Z,15.58
2019-03-22T10:31:50.677Z,14.35
2019-03-22T10:35:01.897Z,15.15
2019-03-22T10:38:00.484Z,19.98
2019-03-22T10:41:05.415Z,14.98
2019-03-22T10:44:06.640Z,15.40
2019-03-22T10:47:07.893Z,15.88
2019-03-22T10:50:08.877Z,14.78
2019-03-22T10:53:02.442Z,18.02
2019-03-22T10:56:05.738Z,14.38
2019-03-22T10:59:09.547Z,14.13
2019-03-22T11:02:03.998Z,17.67
2019-03-22T11:05:04.361Z,13.43
2019-03-22T11:08:02.016Z,12.58
2019-03-22T11:11:03.023Z,18.50
2019-03-22T11:14:04.269Z,13.20
2019-03-22T11:16:54.007Z,12.73
2019-03-22T11:19:57.397Z,17.02
2019-03-22T11:22:56.232Z,13.45
2019-03-22T11:26:06.697Z,18.05
2019-03-22T11:29:07.691Z,13.45
2019-03-22T11:32:12.277Z,12.90
2019-03-22T11:35:06.350Z,15.80
2019-03-22T11:38:07.341Z,13.70
2019-03-22T11:41:15.753Z,13.00
2019-03-22T11:44:16.764Z,12.40
2019-03-22T11:47:17.993Z,15.88
2019-03-22T11:50:19.240Z,17.80
2019-03-22T11:53:21.513Z,11.68
2019-03-22T11:56:17.003Z,12.58
2019-03-22T12:00:13.418Z,13.45
2019-03-22T12:03:15.434Z,15.23
2019-03-22T12:06:16.427Z,15.25
2019-03-22T12:09:18.441Z,16.60
2019-03-22T12:12:19.951Z,12.55
2019-03-22T12:15:20.944Z,10.80
2019-03-22T12:18:22.185Z,11.80
2019-03-22T12:21:23.176Z,11.12
2019-03-22T12:24:24.169Z,12.63
2019-03-22T12:27:25.424Z,16.23
2019-03-22T12:30:33.068Z,11.78
2019-03-22T12:33:34.067Z,14.00
2019-03-22T12:36:35.308Z,16.23
2019-03-22T12:39:37.837Z,17.35
2019-03-22T12:42:38.826Z,8.88
2019-03-22T12:45:36.496Z,9.53
2019-03-22T12:48:37.480Z,9.95
2019-03-22T12:51:38.216Z,9.75
2019-03-22T12:54:39.209Z,11.05
2019-03-22T12:57:36.617Z,13.22
2019-03-22T13:00:31.467Z,12.90
2019-03-22T13:03:32.458Z,12.63
2019-03-22T13:06:33.448Z,10.25
2019-03-22T13:09:37.257Z,11.08
2019-03-22T13:12:38.250Z,8.25
2019-03-22T13:15:39.241Z,11.90
2019-03-22T13:18:49.868Z,9.03
2019-03-22T13:21:41.994Z,9.60
2019-03-22T13:24:42.988Z,9.85
2019-03-22T13:27:43.976Z,7.95
2019-03-22T13:30:46.251Z,10.70
2019-03-22T13:33:47.504Z,6.62
2019-03-22T13:36:49.512Z,8.53
2019-03-22T13:39:51.783Z,7.62
2019-03-22T13:42:52.776Z,9.60
2019-03-22T13:45:54.027Z,7.75
2019-03-22T13:48:55.271Z,6.80
2019-03-22T13:51:52.747Z,5.55
2019-03-22T13:54:53.675Z,5.75
2019-03-22T13:57:55.177Z,6.58
2019-03-22T14:00:56.171Z,11.95
2019-03-22T14:03:57.163Z,6.75
2019-03-22T14:06:58.155Z,8.78
2019-03-22T14:10:02.422Z,5.92
2019-03-22T14:13:09.608Z,5.90
2019-03-22T14:16:10.855Z,7.87
2019-03-22T14:19:11.880Z,9.20
2019-03-22T14:22:13.097Z,9.03
2019-03-22T14:25:06.673Z,6.15
2019-03-22T14:28:00.235Z,5.08
2019-03-22T14:31:12.234Z,8.05
2019-03-22T14:34:13.224Z,7.15
2019-03-22T14:37:10.547Z,5.70
2019-03-22T14:40:15.622Z,12.43
2019-03-22T14:43:21.320Z,5.58
2019-03-22T14:46:22.829Z,5.45
2019-03-22T14:49:23.816Z,12.98
2019-03-22T14:52:25.831Z,11.18
2019-03-22T14:55:19.401Z,10.10
2019-03-22T14:58:25.002Z,12.65
2019-03-22T15:01:33.418Z,11.50
2019-03-22T15:04:41.577Z,7.78
2019-03-22T15:07:42.572Z,7.15
2019-03-22T15:10:45.868Z,12.05
2019-03-22T15:13:53.257Z,4.87
2019-03-22T15:17:06.547Z,5.65
2019-03-22T15:20:18.795Z,6.92
2019-03-22T15:23:40.266Z,8.73
2019-03-22T15:26:52.525Z,10.43
2019-03-22T15:30:05.032Z,5.30
2019-03-22T15:33:34.544Z,7.75
2019-03-22T15:36:43.367Z,8.78
2019-03-22T15:39:56.908Z,5.67
2019-03-22T15:42:50.473Z,8.25
2019-03-22T15:45:51.472Z,4.95
2019-03-22T15:48:45.035Z,7.33
2019-03-22T15:51:48.953Z,9.58
2019-03-22T15:54:50.349Z,7.50
2019-03-22T15:57:52.107Z,8.70
2019-03-22T16:00:53.096Z,6.92
2019-03-22T16:03:54.345Z,10.18
2019-03-22T16:06:55.592Z,5.95
2019-03-22T16:09:56.588Z,9.73
2019-03-22T16:12:58.605Z,9.55
2019-03-22T16:15:59.850Z,5.28
2019-03-22T16:19:01.101Z,6.47
2019-03-22T16:22:03.369Z,5.92
2019-03-22T16:25:04.617Z,7.85
2019-03-22T16:28:05.612Z,10.68
2019-03-22T16:31:06.857Z,6.37
2019-03-22T16:34:08.873Z,6.92
2019-03-22T16:37:09.869Z,6.28
2019-03-22T16:40:10.863Z,5.37
2019-03-22T16:43:12.106Z,9.23
2019-03-22T16:46:14.209Z,5.12
2019-03-22T16:49:14.604Z,7.05
2019-03-22T16:52:16.106Z,9.30
2019-03-22T16:55:17.353Z,7.70
2019-03-22T16:58:22.954Z,6.20
2019-03-22T17:01:24.201Z,6.10
2019-03-22T17:04:25.211Z,7.42
2019-03-22T17:07:26.700Z,11.15
2019-03-22T17:10:28.973Z,10.70
2019-03-22T17:13:18.700Z,5.10
2019-03-22T17:16:20.202Z,7.45
2019-03-22T17:19:21.194Z,8.88
2019-03-22T17:22:22.441Z,10.18
2019-03-22T17:25:23.689Z,7.15
2019-03-22T17:28:25.194Z,10.60
2019-03-22T17:31:26.449Z,6.03
2019-03-22T17:34:28.456Z,5.80
2019-03-22T17:37:25.960Z,6.28
2019-03-22T17:40:19.439Z,10.70
2019-03-22T17:43:20.683Z,6.30
2019-03-22T17:46:22.959Z,7.97
2019-03-22T17:49:26.212Z,7.15
2019-03-22T17:52:28.263Z,9.00
2019-03-22T17:55:22.091Z,8.90
2019-03-22T17:58:23.080Z,9.40
2019-03-22T18:01:16.648Z,5.60
2019-03-22T18:04:24.291Z,3.90
2019-03-22T18:07:24.370Z,8.38
2019-03-22T18:10:24.236Z,6.50
2019-03-22T18:13:25.236Z,6.42
2019-03-22T18:16:28.265Z,7.67
2019-03-22T18:19:24.394Z,6.87
2019-03-22T18:22:25.900Z,7.42
2019-03-22T18:25:26.896Z,6.87
2019-03-22T18:28:28.392Z,4.25
2019-03-22T18:31:29.390Z,5.87
2019-03-22T18:34:34.366Z,7.10
2019-03-22T18:37:27.784Z,8.28
2019-03-22T18:40:28.776Z,8.05
2019-03-22T18:43:29.776Z,8.38
2019-03-22T18:46:31.022Z,8.05
2019-03-22T18:49:32.009Z,8.63
2019-03-22T18:52:25.330Z,8.28
2019-03-22T18:55:18.890Z,8.10
2019-03-22T18:58:20.905Z,7.80
2019-03-22T19:01:22.920Z,7.62
2019-03-22T19:04:24.168Z,7.95
2019-03-22T19:07:25.426Z,8.25
2019-03-22T19:10:26.667Z,8.68
2019-03-22T19:13:30.337Z,8.58
2019-03-22T19:16:24.040Z,7.87
2019-03-22T19:19:21.525Z,8.33
2019-03-22T19:22:23.979Z,8.68
2019-03-22T19:25:25.233Z,7.85
2019-03-22T19:28:26.727Z,8.23
2019-03-22T19:31:28.232Z,8.55
2019-03-22T19:34:29.482Z,9.25
2019-03-22T19:37:30.729Z,8.93
2019-03-22T19:40:32.232Z,9.78
2019-03-22T19:43:33.485Z,9.28
2019-03-22T19:46:23.277Z,9.78
2019-03-22T19:49:24.710Z,9.28
2019-03-22T19:52:25.964Z,9.05
2019-03-22T19:55:27.211Z,8.45
2019-03-22T19:58:28.467Z,6.85
2019-03-22T20:01:30.480Z,10.50
2019-03-22T20:04:31.722Z,6.53
2019-03-22T20:07:32.972Z,9.20
2019-03-22T20:10:26.535Z,4.37
2019-03-22T20:13:27.784Z,8.93
2019-03-22T20:16:29.034Z,9.55
2019-03-22T20:19:30.793Z,9.70
2019-03-22T20:22:33.068Z,5.03
2019-03-22T20:25:34.056Z,9.00
2019-03-22T20:28:35.306Z,10.40
2019-03-22T20:31:28.622Z,11.28
2019-03-22T20:34:29.609Z,12.03
2019-03-22T20:37:32.649Z,12.15
2019-03-22T20:40:22.738Z,11.20
2019-03-22T20:43:25.421Z,6.78
2019-03-22T20:46:26.668Z,10.95
2019-03-22T20:49:20.496Z,10.05
2019-03-22T20:52:22.507Z,10.93
2019-03-22T20:55:24.013Z,9.48
2019-03-22T20:58:25.258Z,6.03
2019-03-22T21:01:26.505Z,10.60
2019-03-22T21:04:28.782Z,7.47
2019-03-22T21:07:18.775Z,7.25
2019-03-22T21:10:16.306Z,10.80
2019-03-22T21:13:18.187Z,11.63
2019-03-22T21:16:19.435Z,11.90
2019-03-22T21:19:20.427Z,12.28
2019-03-22T21:22:21.685Z,11.15
2019-03-22T21:25:22.930Z,11.93
2019-03-22T21:28:23.912Z,12.03
2019-03-22T21:31:25.162Z,11.57
2019-03-22T21:34:26.920Z,11.43
2019-03-22T21:37:28.943Z,11.53
2019-03-22T21:40:30.697Z,12.85
2019-03-22T21:43:31.951Z,12.55
2019-03-22T21:46:33.200Z,12.40
2019-03-22T21:49:34.442Z,13.43
2019-03-22T21:52:35.957Z,13.30
2019-03-22T21:55:36.937Z,17.98
2019-03-22T21:58:35.334Z,13.55
2019-03-22T22:01:32.522Z,14.00
2019-03-22T22:04:33.769Z,12.37
2019-03-22T22:07:34.763Z,13.22
2019-03-22T22:10:28.857Z,14.18
2019-03-22T22:13:29.841Z,13.45
2019-03-22T22:16:31.081Z,11.05
2019-03-22T22:19:32.330Z,13.13
2019-03-22T22:22:33.834Z,13.58
2019-03-22T22:25:27.917Z,12.88
2019-03-22T22:28:29.162Z,12.80
2019-03-22T22:31:32.969Z,16.23
2019-03-22T22:34:34.487Z,16.35
2019-03-22T22:37:27.786Z,14.98
2019-03-22T22:40:29.036Z,7.20
2019-03-22T22:43:30.285Z,16.07
2019-03-22T22:46:31.785Z,16.50
2019-03-22T22:49:33.036Z,16.20
2019-03-22T22:52:34.280Z,15.23
2019-03-22T22:55:27.849Z,15.75
2019-03-22T23:01:42.632Z,15.65
2019-03-22T23:04:43.885Z,14.90
2019-03-22T23:07:47.306Z,14.83
2019-03-22T23:10:54.827Z,15.35
2019-03-22T23:13:56.073Z,14.90
2019-03-22T23:16:57.331Z,11.30
2019-03-22T23:19:58.357Z,14.05
2019-03-22T23:22:59.308Z,13.43
2019-03-22T23:26:10.795Z,12.25
2019-03-22T23:29:11.783Z,7.17
2019-03-22T23:32:12.778Z,6.15
2019-03-22T23:35:15.561Z,12.13
2019-03-22T23:38:16.553Z,12.03
2019-03-22T23:41:17.802Z,13.40
2019-03-22T23:44:19.828Z,13.72
2019-03-22T23:47:20.818Z,13.60
2019-03-22T23:50:22.069Z,13.68
2019-03-22T23:53:24.597Z,12.53
2019-03-22T23:56:18.409Z,10.40
2019-03-22T23:59:19.408Z,11.80
